Time;durP1;ratioP1;P1;durP2;ratioP2;P2;SDS_P1;SDS_P2;PMS_P1;PMS_P2;Temp;Humidity;BMP_temperature;BMP_pressure;BME280_temperature;BME280_humidity;BME280_pressure;Samples;Min_cycle;Max_cycle;Signal;HPM_P1;HPM_P2
2022/05/31 00:00:10;;;;;;;;;;;19.40;65.50;;;;;;5059403;28;868;-73
2022/05/31 00:02:35;;;;;;;;;;;19.40;65.50;;;;;;5072519;28;1125;-74
2022/05/31 00:05:00;;;;;;;;;;;19.40;65.50;;;;;;5054618;28;1098;-74
2022/05/31 00:07:26;;;;;;;;;;;19.40;65.50;;;;;;5071179;28;1212;-73
2022/05/31 00:09:51;;;;;;;;;;;19.40;65.60;;;;;;5072670;28;911;-73
2022/05/31 00:12:17;;;;;;;;;;;19.40;65.60;;;;;;5088188;28;1957;-74
2022/05/31 00:14:42;;;;;;;;;;;19.40;65.60;;;;;;5054741;28;1258;-73
2022/05/31 00:17:08;;;;;;;;;;;19.40;65.60;;;;;;5071207;28;1343;-73
2022/05/31 00:19:33;;;;;;;;;;;19.40;65.60;;;;;;5071278;28;1253;-73
2022/05/31 00:22:02;;;;;;;;;;;19.40;65.60;;;;;;5071224;28;943;-74
2022/05/31 00:24:27;;;;;;;;;;;19.40;65.60;;;;;;5071091;28;1231;-74
2022/05/31 00:26:53;;;;;;;;;;;19.40;65.60;;;;;;5071066;28;1284;-74
2022/05/31 00:29:18;;;;;;;;;;;19.40;65.60;;;;;;5071215;28;615;-74
2022/05/31 00:31:44;;;;;;;;;;;19.40;65.60;;;;;;5070835;28;1941;-74
2022/05/31 00:34:10;;;;;;;;;;;19.40;65.60;;;;;;5071279;28;1618;-73
2022/05/31 00:36:36;;;;;;;;;;;19.40;65.60;;;;;;5070867;28;1600;-73
2022/05/31 00:39:01;;;;;;;;;;;19.40;65.60;;;;;;5071096;28;1060;-73
2022/05/31 00:41:26;;;;;;;;;;;19.40;65.60;;;;;;5070981;28;1038;-73
2022/05/31 00:43:57;;;;;;;;;;;19.40;65.60;;;;;;5072288;28;948;-74
2022/05/31 00:46:24;;;;;;;;;;;19.40;65.60;;;;;;5071302;28;1266;-73
2022/05/31 00:48:55;;;;;;;;;;;19.40;65.70;;;;;;5054523;28;1146;-74
2022/05/31 00:51:21;;;;;;;;;;;19.40;65.60;;;;;;5054626;28;840;-74
2022/05/31 00:53:48;;;;;;;;;;;19.40;65.70;;;;;;5061452;28;1906;-73
2022/05/31 00:56:18;;;;;;;;;;;19.40;65.70;;;;;;5054739;28;1259;-73
2022/05/31 00:58:44;;;;;;;;;;;19.40;65.70;;;;;;5075793;28;997;-74
2022/05/31 01:01:11;;;;;;;;;;;19.40;65.70;;;;;;5074629;28;1101;-74
2022/05/31 01:03:37;;;;;;;;;;;19.40;65.70;;;;;;5074405;28;1122;-74
2022/05/31 01:06:02;;;;;;;;;;;19.40;65.70;;;;;;5074709;28;1134;-74
2022/05/31 01:08:28;;;;;;;;;;;19.40;65.70;;;;;;5075425;28;1284;-74
2022/05/31 01:10:53;;;;;;;;;;;19.40;65.70;;;;;;5074014;28;1182;-74
2022/05/31 01:13:19;;;;;;;;;;;19.30;65.60;;;;;;5073708;28;1957;-74
2022/05/31 01:15:45;;;;;;;;;;;19.40;65.70;;;;;;5073913;28;1086;-74
2022/05/31 01:18:10;;;;;;;;;;;19.30;65.70;;;;;;5073776;28;1204;-74
2022/05/31 01:20:36;;;;;;;;;;;19.40;65.80;;;;;;5074910;28;1057;-73
2022/05/31 01:23:09;;;;;;;;;;;19.40;65.70;;;;;;5075018;28;1125;-74
2022/05/31 01:25:40;;;;;;;;;;;19.40;65.70;;;;;;5060472;28;1074;-74
2022/05/31 01:28:15;;;;;;;;;;;19.40;65.80;;;;;;5074711;28;1266;-74
2022/05/31 01:30:41;;;;;;;;;;;19.40;65.80;;;;;;5074580;28;1022;-74
2022/05/31 01:33:11;;;;;;;;;;;19.40;65.80;;;;;;5073343;28;1965;-74
2022/05/31 01:35:36;;;;;;;;;;;19.40;65.80;;;;;;5073418;28;706;-73
2022/05/31 01:38:07;;;;;;;;;;;19.40;65.80;;;;;;5074627;28;1195;-73
2022/05/31 01:40:56;;;;;;;;;;;19.40;65.80;;;;;;5074714;28;848;-74
2022/05/31 01:43:22;;;;;;;;;;;19.40;65.80;;;;;;5063586;28;1238;-73
2022/05/31 01:46:08;;;;;;;;;;;19.40;65.80;;;;;;5073448;28;871;-73
2022/05/31 01:48:34;;;;;;;;;;;19.40;65.80;;;;;;5073571;28;1133;-73
2022/05/31 01:50:59;;;;;;;;;;;19.40;65.80;;;;;;5074545;28;855;-73
2022/05/31 01:53:24;;;;;;;;;;;19.40;65.80;;;;;;5074368;28;1893;-73
2022/05/31 01:55:50;;;;;;;;;;;19.40;65.80;;;;;;5073011;28;796;-74
2022/05/31 01:58:17;;;;;;;;;;;19.40;65.80;;;;;;5072341;28;1323;-73
2022/05/31 02:00:43;;;;;;;;;;;19.40;65.80;;;;;;5074194;28;816;-73
2022/05/31 02:03:09;;;;;;;;;;;19.40;65.90;;;;;;5063592;28;961;-73
2022/05/31 02:05:34;;;;;;;;;;;19.40;65.80;;;;;;5073026;28;892;-73
2022/05/31 02:10:27;;;;;;;;;;;19.40;66.00;;;;;;5029081;28;1508;-69
2022/05/31 02:12:53;;;;;;;;;;;19.40;65.90;;;;;;5015876;28;1975;-68
2022/05/31 02:15:19;;;;;;;;;;;19.40;65.90;;;;;;5016199;28;1351;-68
2022/05/31 02:17:44;;;;;;;;;;;19.40;65.90;;;;;;5033739;28;1314;-68
2022/05/31 02:20:10;;;;;;;;;;;19.40;65.90;;;;;;5005729;28;1323;-69
2022/05/31 02:22:35;;;;;;;;;;;19.30;65.80;;;;;;4996200;28;1283;-69
2022/05/31 02:25:01;;;;;;;;;;;19.40;65.90;;;;;;5023870;28;1253;-69
2022/05/31 02:27:26;;;;;;;;;;;19.30;65.90;;;;;;5033473;28;1222;-69
2022/05/31 02:29:52;;;;;;;;;;;19.30;65.90;;;;;;5033246;28;1301;-69
2022/05/31 02:32:17;;;;;;;;;;;19.40;66.70;;;;;;5033192;28;1961;-68
2022/05/31 02:34:43;;;;;;;;;;;19.30;65.90;;;;;;5029827;28;1395;-69
2022/05/31 02:37:09;;;;;;;;;;;19.30;65.90;;;;;;5025439;28;1204;-69
2022/05/31 02:39:34;;;;;;;;;;;19.30;65.90;;;;;;5005555;28;1299;-68
2022/05/31 02:42:00;;;;;;;;;;;19.40;65.90;;;;;;4998827;28;1237;-69
2022/05/31 02:44:26;;;;;;;;;;;19.30;65.90;;;;;;5033281;28;1335;-68
2022/05/31 02:46:51;;;;;;;;;;;19.30;65.90;;;;;;5015349;28;1356;-69
2022/05/31 02:49:17;;;;;;;;;;;19.30;65.90;;;;;;5033162;28;1366;-69
2022/05/31 02:51:43;;;;;;;;;;;19.30;65.90;;;;;;4997755;28;1939;-69
2022/05/31 02:54:08;;;;;;;;;;;19.30;65.90;;;;;;5014631;28;2201;-69
2022/05/31 02:56:34;;;;;;;;;;;19.30;65.90;;;;;;5011864;28;1577;-70
2022/05/31 02:58:59;;;;;;;;;;;19.40;66.00;;;;;;5023309;28;1529;-70
2022/05/31 03:01:28;;;;;;;;;;;19.40;66.20;;;;;;5015615;28;1185;-70
2022/05/31 03:03:54;;;;;;;;;;;19.40;66.20;;;;;;5037432;28;1029;-69
2022/05/31 03:06:19;;;;;;;;;;;19.50;66.30;;;;;;5015498;28;1191;-69
2022/05/31 03:08:45;;;;;;;;;;;19.50;66.20;;;;;;5015301;28;1457;-70
2022/05/31 03:11:26;;;;;;;;;;;19.60;66.10;;;;;;5015193;28;1693;-70
2022/05/31 03:13:53;;;;;;;;;;;19.60;66.10;;;;;;5033151;28;1973;-69
2022/05/31 03:16:18;;;;;;;;;;;19.60;66.00;;;;;;5015764;28;1473;-69
2022/05/31 03:18:46;;;;;;;;;;;19.60;66.10;;;;;;5041836;28;1676;-69
2022/05/31 03:21:12;;;;;;;;;;;19.60;66.10;;;;;;5015274;28;1855;-70
2022/05/31 03:23:42;;;;;;;;;;;19.60;66.10;;;;;;5015724;28;1683;-69
2022/05/31 03:26:08;;;;;;;;;;;19.60;66.10;;;;;;5015506;28;1375;-69
2022/05/31 03:28:33;;;;;;;;;;;19.60;66.10;;;;;;5015411;28;1413;-69
2022/05/31 03:30:59;;;;;;;;;;;19.60;66.20;;;;;;5032852;28;1683;-69
2022/05/31 03:33:25;;;;;;;;;;;19.60;66.30;;;;;;5033019;28;1961;-70
2022/05/31 03:35:50;;;;;;;;;;;19.60;66.40;;;;;;5009459;28;1692;-69
2022/05/31 03:38:16;;;;;;;;;;;19.60;66.40;;;;;;5015331;28;1388;-69
2022/05/31 03:40:56;;;;;;;;;;;19.60;66.50;;;;;;5025859;28;1534;-69
2022/05/31 03:43:22;;;;;;;;;;;19.60;66.60;;;;;;5012338;28;1664;-70
2022/05/31 03:45:48;;;;;;;;;;;19.60;66.70;;;;;;5012003;28;1158;-70
2022/05/31 03:48:13;;;;;;;;;;;19.60;66.70;;;;;;4997962;28;1359;-69
2022/05/31 03:50:38;;;;;;;;;;;19.60;66.70;;;;;;5032831;28;1159;-69
2022/05/31 03:53:07;;;;;;;;;;;19.60;66.80;;;;;;5017485;28;1965;-69
2022/05/31 03:55:36;;;;;;;;;;;19.60;66.90;;;;;;5012385;28;1405;-70
2022/05/31 03:58:02;;;;;;;;;;;19.60;66.90;;;;;;5012881;28;1447;-69
2022/05/31 04:00:28;;;;;;;;;;;19.60;67.10;;;;;;5011592;28;1604;-69
2022/05/31 04:02:55;;;;;;;;;;;19.60;67.10;;;;;;5032421;28;1543;-69
2022/05/31 04:05:20;;;;;;;;;;;19.60;67.90;;;;;;5032770;28;1355;-70
2022/05/31 04:07:46;;;;;;;;;;;19.60;67.20;;;;;;5011206;28;1889;-65
2022/05/31 04:10:11;;;;;;;;;;;19.60;67.20;;;;;;5031371;28;1934;-65
2022/05/31 04:12:37;;;;;;;;;;;19.60;67.20;;;;;;5030258;28;1902;-65
2022/05/31 04:15:03;;;;;;;;;;;19.60;67.20;;;;;;5027257;28;1616;-66
2022/05/31 04:17:28;;;;;;;;;;;19.60;67.20;;;;;;5032580;28;1356;-66
2022/05/31 04:19:54;;;;;;;;;;;19.60;67.30;;;;;;5041822;28;1537;-65
2022/05/31 04:22:19;;;;;;;;;;;19.60;67.30;;;;;;5034480;28;1396;-66
2022/05/31 04:24:45;;;;;;;;;;;19.60;67.20;;;;;;5036607;28;1672;-67
2022/05/31 04:27:16;;;;;;;;;;;19.60;67.30;;;;;;5036323;28;1410;-66
2022/05/31 04:29:42;;;;;;;;;;;19.60;67.30;;;;;;5018385;28;1794;-66
2022/05/31 04:32:07;;;;;;;;;;;19.60;67.30;;;;;;5035829;28;1902;-65
2022/05/31 04:34:32;;;;;;;;;;;19.60;67.40;;;;;;5036293;28;1481;-68
2022/05/31 04:36:58;;;;;;;;;;;19.60;67.50;;;;;;5022992;28;1040;-67
2022/05/31 04:39:23;;;;;;;;;;;19.70;67.60;;;;;;5027183;28;1596;-66
2022/05/31 04:41:49;;;;;;;;;;;19.60;67.50;;;;;;5016139;28;1636;-66
2022/05/31 04:44:14;;;;;;;;;;;19.60;67.50;;;;;;5023959;28;1289;-69
2022/05/31 04:46:40;;;;;;;;;;;19.60;67.50;;;;;;5015982;28;1473;-67
2022/05/31 04:49:05;;;;;;;;;;;19.60;67.50;;;;;;5014867;28;1697;-66
2022/05/31 04:51:32;;;;;;;;;;;19.70;67.60;;;;;;5031528;28;1450;-67
2022/05/31 04:53:58;;;;;;;;;;;19.70;67.60;;;;;;5018359;28;1902;-66
2022/05/31 04:56:23;;;;;;;;;;;19.60;67.50;;;;;;5035893;28;1537;-67
2022/05/31 04:58:49;;;;;;;;;;;19.60;68.30;;;;;;5028582;28;1937;-66
2022/05/31 05:01:14;;;;;;;;;;;19.60;67.60;;;;;;5030387;28;1535;-65
2022/05/31 05:03:44;;;;;;;;;;;19.60;67.60;;;;;;5039551;28;1549;-68
2022/05/31 05:06:10;;;;;;;;;;;19.60;67.60;;;;;;5018033;28;1425;-68
2022/05/31 05:08:35;;;;;;;;;;;19.60;68.40;;;;;;5017759;28;1595;-67
2022/05/31 05:11:01;;;;;;;;;;;19.70;67.70;;;;;;5034229;28;1589;-68
2022/05/31 05:13:27;;;;;;;;;;;19.60;67.70;;;;;;5017714;28;1906;-67
2022/05/31 05:15:54;;;;;;;;;;;19.60;67.70;;;;;;5017754;28;1618;-67
2022/05/31 05:18:20;;;;;;;;;;;19.60;67.70;;;;;;5040601;28;1674;-68
2022/05/31 05:20:46;;;;;;;;;;;19.60;67.70;;;;;;5034639;28;2016;-65
2022/05/31 05:23:11;;;;;;;;;;;19.60;67.70;;;;;;5026296;28;1609;-67
2022/05/31 05:25:37;;;;;;;;;;;19.60;67.80;;;;;;5015492;28;1443;-69
2022/05/31 05:30:38;;;;;;;;;;;19.60;67.70;;;;;;5014122;28;1713;-70
2022/05/31 05:30:47;;;;;;;;;;;19.60;68.80;;;;;;5015066;28;1595;-69
2022/05/31 05:33:13;;;;;;;;;;;19.70;68.70;;;;;;5024234;28;1969;-70
2022/05/31 05:35:38;;;;;;;;;;;19.70;68.40;;;;;;5028463;28;1450;-71
2022/05/31 05:38:06;;;;;;;;;;;19.70;68.40;;;;;;5017461;28;1603;-71
2022/05/31 05:40:32;;;;;;;;;;;19.70;68.30;;;;;;5034645;28;1373;-65
2022/05/31 05:42:57;;;;;;;;;;;19.70;68.30;;;;;;5017331;28;1587;-63
2022/05/31 05:45:23;;;;;;;;;;;19.70;68.30;;;;;;5034965;28;1425;-64
2022/05/31 05:47:49;;;;;;;;;;;19.80;68.40;;;;;;5034814;28;1655;-65
2022/05/31 05:50:14;;;;;;;;;;;19.70;68.40;;;;;;5034594;28;1654;-65
2022/05/31 05:52:40;;;;;;;;;;;19.80;68.40;;;;;;5034752;28;1898;-65
2022/05/31 05:55:05;;;;;;;;;;;19.80;68.40;;;;;;5034675;28;1646;-65
2022/05/31 05:57:31;;;;;;;;;;;19.80;68.40;;;;;;5016886;28;1428;-69
2022/05/31 05:59:56;;;;;;;;;;;19.80;68.40;;;;;;5034235;28;1762;-67
2022/05/31 06:02:24;;;;;;;;;;;19.80;68.50;;;;;;5018961;28;1135;-63
2022/05/31 06:04:51;;;;;;;;;;;19.80;68.40;;;;;;5018621;28;1724;-64
2022/05/31 06:07:16;;;;;;;;;;;19.80;68.40;;;;;;5017091;28;1414;-69
2022/05/31 06:09:42;;;;;;;;;;;19.80;68.40;;;;;;5034062;28;1566;-67
2022/05/31 06:12:09;;;;;;;;;;;19.80;68.40;;;;;;5016312;28;1914;-68
2022/05/31 06:14:36;;;;;;;;;;;19.80;68.40;;;;;;5016727;28;1450;-68
2022/05/31 06:17:04;;;;;;;;;;;19.80;68.50;;;;;;5005076;28;845;-68
2022/05/31 06:19:38;;;;;;;;;;;19.80;68.40;;;;;;5032394;28;1723;-67
2022/05/31 06:22:04;;;;;;;;;;;19.80;68.50;;;;;;5012776;28;1422;-66
2022/05/31 06:24:31;;;;;;;;;;;19.80;68.50;;;;;;5012953;28;1742;-64
2022/05/31 06:26:56;;;;;;;;;;;19.80;68.50;;;;;;5014468;28;1196;-66
2022/05/31 06:29:22;;;;;;;;;;;19.80;68.50;;;;;;5014183;28;1803;-66
2022/05/31 06:31:47;;;;;;;;;;;19.80;68.50;;;;;;5013888;28;1883;-67
2022/05/31 06:34:12;;;;;;;;;;;19.80;68.60;;;;;;5014202;28;1654;-68
2022/05/31 06:36:39;;;;;;;;;;;19.80;68.60;;;;;;5027318;28;1735;-67
2022/05/31 06:39:05;;;;;;;;;;;19.80;68.70;;;;;;5033859;28;1601;-68
2022/05/31 06:41:30;;;;;;;;;;;19.80;68.70;;;;;;5015990;28;1660;-69
2022/05/31 06:43:57;;;;;;;;;;;19.80;68.70;;;;;;5033895;28;1269;-69
2022/05/31 06:46:23;;;;;;;;;;;19.80;68.70;;;;;;5033634;28;1646;-70
2022/05/31 06:48:48;;;;;;;;;;;19.80;68.80;;;;;;5033744;28;1238;-70
2022/05/31 06:51:14;;;;;;;;;;;19.80;68.80;;;;;;5020061;28;1373;-68
2022/05/31 06:58:52;;;;;;;;;;;19.80;68.70;;;;;;5032854;28;1416;-68
2022/05/31 07:01:17;;;;;;;;;;;19.80;68.70;;;;;;5033052;28;1481;-68
2022/05/31 07:03:43;;;;;;;;;;;19.80;68.80;;;;;;5037174;28;1435;-68
2022/05/31 07:06:08;;;;;;;;;;;19.90;68.80;;;;;;5012546;28;909;-68
2022/05/31 07:08:34;;;;;;;;;;;19.80;68.70;;;;;;5012276;28;1244;-68
2022/05/31 07:11:00;;;;;;;;;;;19.80;68.80;;;;;;5013552;28;887;-68
2022/05/31 07:13:26;;;;;;;;;;;19.80;68.80;;;;;;5012388;28;1911;-68
2022/05/31 07:15:52;;;;;;;;;;;19.80;68.70;;;;;;5015193;28;3459;-68
2022/05/31 07:18:18;;;;;;;;;;;19.80;68.70;;;;;;5018725;28;1547;-69
2022/05/31 07:20:44;;;;;;;;;;;19.80;68.70;;;;;;5032922;28;1499;-69
2022/05/31 07:23:10;;;;;;;;;;;19.80;68.80;;;;;;5033279;28;1520;-69
2022/05/31 07:25:35;;;;;;;;;;;19.80;68.90;;;;;;5033385;28;1471;-69
2022/05/31 07:28:00;;;;;;;;;;;19.80;68.90;;;;;;5033135;28;1514;-69
2022/05/31 07:30:26;;;;;;;;;;;19.80;68.90;;;;;;5033135;28;948;-69
2022/05/31 07:32:51;;;;;;;;;;;19.80;69.00;;;;;;5032967;28;1894;-69
2022/05/31 07:35:17;;;;;;;;;;;19.80;69.20;;;;;;5033055;28;916;-69
2022/05/31 07:37:42;;;;;;;;;;;19.80;69.20;;;;;;5033197;28;1054;-69
2022/05/31 07:40:08;;;;;;;;;;;19.80;69.20;;;;;;5032686;28;1296;-69
2022/05/31 07:42:33;;;;;;;;;;;19.80;69.30;;;;;;5031789;28;908;-69
2022/05/31 07:44:59;;;;;;;;;;;19.80;69.30;;;;;;5032914;28;869;-69
2022/05/31 07:47:24;;;;;;;;;;;19.80;69.30;;;;;;5015460;28;907;-69
2022/05/31 07:49:50;;;;;;;;;;;19.80;69.30;;;;;;5014937;28;1303;-69
2022/05/31 07:52:15;;;;;;;;;;;19.80;69.40;;;;;;5015196;28;1961;-69
2022/05/31 07:54:41;;;;;;;;;;;19.80;69.40;;;;;;5015371;28;890;-68
2022/05/31 07:57:06;;;;;;;;;;;19.80;69.50;;;;;;5034386;28;912;-69
2022/05/31 07:59:32;;;;;;;;;;;19.80;69.50;;;;;;5036959;28;1660;-69
2022/05/31 08:01:58;;;;;;;;;;;19.80;69.60;;;;;;5019072;28;1432;-68
2022/05/31 08:04:23;;;;;;;;;;;19.80;69.50;;;;;;5055392;28;1475;-68
2022/05/31 08:06:49;;;;;;;;;;;19.80;69.50;;;;;;5056888;28;735;-69
2022/05/31 08:09:14;;;;;;;;;;;19.80;69.50;;;;;;5061065;23;1812;-72
2022/05/31 08:11:39;;;;;;;;;;;19.80;69.50;;;;;;5055073;28;1253;-73
2022/05/31 08:14:05;;;;;;;;;;;19.80;70.20;;;;;;5056467;28;1973;-73
2022/05/31 08:16:30;;;;;;;;;;;19.80;69.50;;;;;;5038863;28;823;-73
2022/05/31 08:18:56;;;;;;;;;;;19.80;69.50;;;;;;5047583;28;1430;-73
2022/05/31 08:21:30;;;;;;;;;;;19.80;69.50;;;;;;5056457;28;830;-72
2022/05/31 08:23:56;;;;;;;;;;;19.90;69.70;;;;;;5055410;28;840;-72
2022/05/31 08:26:22;;;;;;;;;;;19.80;69.60;;;;;;5055250;28;884;-73
2022/05/31 08:28:47;;;;;;;;;;;19.80;69.60;;;;;;5056288;28;1306;-73
2022/05/31 08:31:13;;;;;;;;;;;19.80;69.50;;;;;;5055015;28;932;-73
2022/05/31 08:33:39;;;;;;;;;;;19.80;69.50;;;;;;5054882;28;1961;-73
2022/05/31 08:36:04;;;;;;;;;;;19.80;69.60;;;;;;5055135;28;1058;-73
2022/05/31 08:38:30;;;;;;;;;;;19.80;69.70;;;;;;5056382;28;967;-73
2022/05/31 08:41:16;;;;;;;;;;;19.80;69.70;;;;;;5054788;28;1272;-74
2022/05/31 08:43:50;;;;;;;;;;;19.80;69.80;;;;;;5056073;28;825;-73
2022/05/31 08:46:23;;;;;;;;;;;19.80;69.80;;;;;;5055124;28;857;-73
2022/05/31 08:48:57;;;;;;;;;;;19.80;69.80;;;;;;5054893;28;1268;-76
2022/05/31 08:56:57;;;;;;;;;;;19.80;69.80;;;;;;5054914;28;728;-76
2022/05/31 08:59:43;;;;;;;;;;;19.80;69.90;;;;;;5054438;28;1221;-74
2022/05/31 09:02:29;;;;;;;;;;;19.80;69.90;;;;;;5038460;28;1537;-74
2022/05/31 09:05:08;;;;;;;;;;;19.80;69.90;;;;;;5055202;28;1141;-75
2022/05/31 09:07:35;;;;;;;;;;;19.90;69.90;;;;;;5055405;28;1035;-75
2022/05/31 09:10:04;;;;;;;;;;;19.90;70.00;;;;;;5053902;28;1227;-76
2022/05/31 09:12:34;;;;;;;;;;;19.90;70.00;;;;;;5055482;28;1902;-76
2022/05/31 09:15:14;;;;;;;;;;;19.90;70.00;;;;;;5054401;28;923;-76
2022/05/31 09:17:40;;;;;;;;;;;19.90;70.00;;;;;;5055720;28;825;-76
2022/05/31 09:20:11;;;;;;;;;;;19.90;70.00;;;;;;5047217;28;1603;-76
2022/05/31 09:22:38;;;;;;;;;;;19.90;70.00;;;;;;5047563;28;911;-75
2022/05/31 09:25:05;;;;;;;;;;;19.90;69.90;;;;;;5030874;28;1231;-76
2022/05/31 09:27:36;;;;;;;;;;;19.90;69.90;;;;;;5047125;28;853;-75
2022/05/31 09:30:08;;;;;;;;;;;19.90;70.10;;;;;;5046706;28;1628;-75
2022/05/31 09:32:39;;;;;;;;;;;19.90;70.10;;;;;;5047035;28;1898;-75
2022/05/31 09:35:07;;;;;;;;;;;20.00;70.00;;;;;;5047422;28;920;-75
2022/05/31 09:37:37;;;;;;;;;;;20.00;69.90;;;;;;5015603;28;861;-75
2022/05/31 09:40:08;;;;;;;;;;;20.00;69.80;;;;;;5047121;28;1319;-75
2022/05/31 09:42:38;;;;;;;;;;;20.00;70.00;;;;;;5015215;28;1106;-75
2022/05/31 09:45:10;;;;;;;;;;;20.00;69.90;;;;;;5030317;28;1232;-74
2022/05/31 09:47:35;;;;;;;;;;;20.00;70.00;;;;;;5015344;28;880;-74
2022/05/31 09:50:01;;;;;;;;;;;20.00;69.90;;;;;;5014954;28;1189;-75
2022/05/31 09:52:30;;;;;;;;;;;20.00;69.80;;;;;;5047003;28;1898;-75
2022/05/31 09:58:02;;;;;;;;;;;19.90;69.80;;;;;;5041715;28;691;-74
2022/05/31 10:00:27;;;;;;;;;;;19.90;69.80;;;;;;5013352;28;1303;-75
2022/05/31 10:02:57;;;;;;;;;;;19.90;69.90;;;;;;5037139;28;1458;-75
2022/05/31 10:05:22;;;;;;;;;;;19.90;70.00;;;;;;5014417;28;872;-75
2022/05/31 10:07:48;;;;;;;;;;;19.90;70.10;;;;;;5014579;28;940;-75
2022/05/31 10:10:15;;;;;;;;;;;19.90;70.10;;;;;;5012776;28;1454;-75
2022/05/31 10:12:48;;;;;;;;;;;19.90;70.20;;;;;;5014537;28;1969;-74
2022/05/31 10:15:28;;;;;;;;;;;19.90;70.20;;;;;;5046430;28;1026;-75
2022/05/31 10:18:04;;;;;;;;;;;20.00;70.30;;;;;;5046434;28;812;-76
2022/05/31 10:20:30;;;;;;;;;;;19.90;70.40;;;;;;5013384;28;1302;-76
2022/05/31 10:23:00;;;;;;;;;;;19.90;70.30;;;;;;5045806;28;908;-76
2022/05/31 10:25:35;;;;;;;;;;;19.90;70.30;;;;;;5014151;28;836;-75
2022/05/31 10:28:02;;;;;;;;;;;19.90;70.30;;;;;;5046072;28;1046;-76
2022/05/31 10:30:28;;;;;;;;;;;19.90;70.30;;;;;;5028823;28;1175;-74
2022/05/31 10:33:16;;;;;;;;;;;19.90;70.30;;;;;;5012635;28;1898;-74
2022/05/31 10:35:46;;;;;;;;;;;19.90;70.40;;;;;;5045995;28;1473;-74
2022/05/31 10:38:18;;;;;;;;;;;19.90;70.40;;;;;;5014042;28;808;-73
2022/05/31 10:40:55;;;;;;;;;;;19.90;70.50;;;;;;5045464;28;1205;-75
2022/05/31 10:43:21;;;;;;;;;;;19.90;70.80;;;;;;5013830;28;833;-74
2022/05/31 10:45:46;;;;;;;;;;;19.90;70.80;;;;;;5014208;28;1043;-75
2022/05/31 10:48:11;;;;;;;;;;;20.00;70.80;;;;;;5045859;28;932;-73
2022/05/31 10:50:56;;;;;;;;;;;20.00;70.70;;;;;;5045215;28;1149;-74
2022/05/31 10:53:25;;;;;;;;;;;20.00;70.60;;;;;;5013442;28;1954;-74
2022/05/31 10:55:53;;;;;;;;;;;20.00;70.50;;;;;;5044715;28;875;-74
2022/05/31 10:58:18;;;;;;;;;;;20.00;70.40;;;;;;5045376;28;888;-75
2022/05/31 11:00:53;;;;;;;;;;;20.00;70.50;;;;;;5013394;28;1183;-74
2022/05/31 11:03:21;;;;;;;;;;;20.00;70.50;;;;;;5032824;28;1506;-77
2022/05/31 11:05:53;;;;;;;;;;;20.00;70.90;;;;;;5032150;28;1003;-77
2022/05/31 11:11:28;;;;;;;;;;;20.00;67.00;;;;;;5032489;28;1338;-77
2022/05/31 11:14:09;;;;;;;;;;;19.90;66.30;;;;;;5031665;28;1910;-76
2022/05/31 11:16:49;;;;;;;;;;;19.90;65.50;;;;;;5031805;28;1439;-76
2022/05/31 11:19:18;;;;;;;;;;;19.90;65.50;;;;;;5032846;28;1283;-77
2022/05/31 11:21:49;;;;;;;;;;;19.80;65.60;;;;;;5032645;28;1012;-76
2022/05/31 11:24:21;;;;;;;;;;;19.80;64.80;;;;;;5031580;28;825;-76
2022/05/31 11:26:56;;;;;;;;;;;19.80;63.90;;;;;;5032998;28;806;-76
2022/05/31 11:29:33;;;;;;;;;;;19.80;63.80;;;;;;5014842;28;1350;-76
2022/05/31 11:32:12;;;;;;;;;;;19.70;63.90;;;;;;5013704;28;1898;-77
2022/05/31 11:34:52;;;;;;;;;;;19.70;62.70;;;;;;5027118;28;2020;-76
2022/05/31 11:37:20;;;;;;;;;;;19.70;62.20;;;;;;5028588;28;1135;-74
2022/05/31 11:39:47;;;;;;;;;;;19.70;62.40;;;;;;5031022;28;1338;-76
2022/05/31 11:42:15;;;;;;;;;;;19.70;61.90;;;;;;5031964;28;927;-76
2022/05/31 11:44:50;;;;;;;;;;;19.70;61.70;;;;;;5025757;28;2162;-77
2022/05/31 11:47:35;;;;;;;;;;;19.70;60.80;;;;;;5018493;28;1158;-76
2022/05/31 11:50:19;;;;;;;;;;;19.70;61.00;;;;;;4994310;28;1210;-76
2022/05/31 11:52:52;;;;;;;;;;;19.60;61.40;;;;;;5023520;28;1964;-77
2022/05/31 11:55:39;;;;;;;;;;;19.60;61.50;;;;;;5013185;28;1477;-77
2022/05/31 11:58:06;;;;;;;;;;;19.60;61.20;;;;;;5032145;28;1098;-77
2022/05/31 12:00:40;;;;;;;;;;;19.60;60.90;;;;;;5030458;28;1238;-77
2022/05/31 12:03:09;;;;;;;;;;;19.60;59.80;;;;;;5032120;28;1338;-77
2022/05/31 12:05:36;;;;;;;;;;;19.60;58.80;;;;;;5027292;28;1167;-76
2022/05/31 12:08:04;;;;;;;;;;;19.60;59.00;;;;;;5027344;28;1152;-76
2022/05/31 12:10:31;;;;;;;;;;;19.60;58.30;;;;;;5026986;28;1343;-76
2022/05/31 12:12:57;;;;;;;;;;;19.60;58.20;;;;;;5027657;28;1910;-77
2022/05/31 12:15:23;;;;;;;;;;;19.60;58.00;;;;;;5012566;28;895;-77
2022/05/31 12:17:53;;;;;;;;;;;19.60;58.40;;;;;;5031380;28;1056;-76
2022/05/31 12:20:38;;;;;;;;;;;19.60;58.50;;;;;;5014325;28;1657;-77
2022/05/31 12:23:03;;;;;;;;;;;19.60;58.70;;;;;;5032136;28;833;-75
2022/05/31 12:25:31;;;;;;;;;;;19.60;59.10;;;;;;5032063;28;655;-75
2022/05/31 12:28:03;;;;;;;;;;;19.50;58.90;;;;;;5014262;28;1442;-75
2022/05/31 12:30:30;;;;;;;;;;;19.60;59.10;;;;;;5031755;28;1193;-77
2022/05/31 12:32:56;;;;;;;;;;;19.60;59.20;;;;;;5031020;28;1957;-76
2022/05/31 12:35:30;;;;;;;;;;;19.60;59.50;;;;;;5030605;28;655;-75
2022/05/31 12:38:01;;;;;;;;;;;19.60;59.80;;;;;;5032417;28;1023;-76
2022/05/31 12:40:37;;;;;;;;;;;19.60;58.80;;;;;;5031596;28;1294;-76
2022/05/31 12:43:07;;;;;;;;;;;19.60;58.90;;;;;;5033339;28;841;-77
2022/05/31 12:45:32;;;;;;;;;;;19.60;58.60;;;;;;5034255;28;1151;-76
2022/05/31 12:47:58;;;;;;;;;;;19.60;59.20;;;;;;5035708;28;821;-76
2022/05/31 12:50:42;;;;;;;;;;;19.60;58.20;;;;;;5033892;28;1167;-76
2022/05/31 12:53:23;;;;;;;;;;;19.60;58.70;;;;;;5035488;28;1959;-77
2022/05/31 12:55:54;;;;;;;;;;;19.60;59.20;;;;;;5035476;28;829;-76
2022/05/31 12:58:30;;;;;;;;;;;19.60;59.30;;;;;;5035292;28;921;-76
2022/05/31 13:01:06;;;;;;;;;;;19.60;59.10;;;;;;5033853;28;1198;-76
2022/05/31 13:03:34;;;;;;;;;;;19.60;57.90;;;;;;5037168;28;1155;-76
2022/05/31 13:06:00;;;;;;;;;;;19.60;59.40;;;;;;5055080;28;904;-76
2022/05/31 13:08:56;;;;;;;;;;;19.60;59.00;;;;;;5037301;28;1168;-76
2022/05/31 13:20:13;;;;;;;;;;;19.60;57.90;;;;;;5047299;28;1341;-76
2022/05/31 13:22:42;;;;;;;;;;;19.50;58.00;;;;;;5047979;28;1229;-76
2022/05/31 13:25:27;;;;;;;;;;;19.60;58.90;;;;;;5033621;28;802;-76
2022/05/31 13:27:53;;;;;;;;;;;19.60;58.90;;;;;;5035012;28;866;-77
2022/05/31 13:30:19;;;;;;;;;;;19.60;58.80;;;;;;5016919;28;1220;-77
2022/05/31 13:32:46;;;;;;;;;;;19.50;59.40;;;;;;5034737;28;1898;-76
2022/05/31 13:35:15;;;;;;;;;;;19.50;58.70;;;;;;5016864;28;1133;-77
2022/05/31 13:38:10;;;;;;;;;;;19.50;58.80;;;;;;5016634;28;1219;-75
2022/05/31 13:40:37;;;;;;;;;;;19.50;58.80;;;;;;5026398;28;1323;-76
2022/05/31 13:43:03;;;;;;;;;;;19.50;58.50;;;;;;5049251;28;1204;-74
2022/05/31 13:45:29;;;;;;;;;;;19.50;58.60;;;;;;5033590;28;1227;-75
2022/05/31 13:47:58;;;;;;;;;;;19.50;57.50;;;;;;5049375;28;1246;-76
2022/05/31 13:50:25;;;;;;;;;;;19.50;58.30;;;;;;5031928;28;1385;-76
2022/05/31 13:52:50;;;;;;;;;;;19.50;59.10;;;;;;5033945;28;1902;-77
2022/05/31 13:55:19;;;;;;;;;;;19.50;58.50;;;;;;5033316;28;1236;-76
2022/05/31 13:57:57;;;;;;;;;;;19.50;58.90;;;;;;5033950;28;1302;-74
2022/05/31 14:00:37;;;;;;;;;;;19.50;58.80;;;;;;5047918;28;1266;-76
2022/05/31 14:03:08;;;;;;;;;;;19.50;59.00;;;;;;5052864;28;1656;-76
2022/05/31 14:05:34;;;;;;;;;;;19.50;58.80;;;;;;5053248;28;959;-76
2022/05/31 14:08:00;;;;;;;;;;;19.50;58.50;;;;;;5052951;28;896;-77
2022/05/31 14:10:26;;;;;;;;;;;19.50;58.20;;;;;;5076150;22;1927;-70
2022/05/31 14:12:52;;;;;;;;;;;19.50;58.00;;;;;;5049468;28;1975;-71
2022/05/31 14:15:21;;;;;;;;;;;19.50;57.40;;;;;;5048943;28;1543;-69
2022/05/31 14:17:47;;;;;;;;;;;19.50;57.40;;;;;;5066695;28;1110;-70
2022/05/31 14:20:25;;;;;;;;;;;19.40;57.60;;;;;;5068928;28;1216;-72
2022/05/31 14:22:50;;;;;;;;;;;19.50;57.40;;;;;;5052711;28;903;-73
2022/05/31 14:25:22;;;;;;;;;;;19.40;57.40;;;;;;5052587;28;982;-72
2022/05/31 14:27:48;;;;;;;;;;;19.50;57.30;;;;;;5053699;28;883;-71
2022/05/31 14:30:27;;;;;;;;;;;19.50;57.10;;;;;;5053350;28;1327;-70
2022/05/31 14:33:00;;;;;;;;;;;19.50;57.40;;;;;;5035791;28;1902;-69
2022/05/31 14:35:33;;;;;;;;;;;19.50;57.40;;;;;;5052442;28;904;-68
2022/05/31 14:37:58;;;;;;;;;;;19.40;57.50;;;;;;5052373;28;915;-69
2022/05/31 14:40:27;;;;;;;;;;;19.40;57.70;;;;;;5052993;28;1299;-69
2022/05/31 14:42:57;;;;;;;;;;;19.40;57.50;;;;;;5053298;28;836;-69
2022/05/31 14:45:26;;;;;;;;;;;19.50;57.70;;;;;;5052092;28;864;-68
2022/05/31 14:47:52;;;;;;;;;;;19.40;57.40;;;;;;5052148;28;884;-69
2022/05/31 14:50:25;;;;;;;;;;;19.50;57.80;;;;;;5051620;28;1222;-70
2022/05/31 14:52:51;;;;;;;;;;;19.40;58.10;;;;;;5052999;28;1959;-69
2022/05/31 14:55:20;;;;;;;;;;;19.40;58.20;;;;;;5052311;28;811;-68
2022/05/31 15:00:38;;;;;;;;;;;19.50;58.30;;;;;;5051751;28;1259;-69
2022/05/31 15:03:14;;;;;;;;;;;19.40;58.00;;;;;;5043504;28;1185;-68
2022/05/31 15:05:39;;;;;;;;;;;19.40;57.50;;;;;;5051735;28;916;-69
2022/05/31 15:08:05;;;;;;;;;;;19.40;57.90;;;;;;5053070;28;927;-69
2022/05/31 15:10:31;;;;;;;;;;;19.40;58.00;;;;;;5052524;28;1231;-70